Terminal Aerodrome Forecast
Issued by NWS Quad Cities IA IL

Home | Current Version | Previous Version | Text Only | Print | Product List | Glossary On
Versions: 1 2 3 4 5 6 7 8 9 10 11 12 13 14 15 16 17 18 19 20 21 22 23 24 25 26
408
FTUS43 KDVN 270528 AAA
TAFDBQ
TAF AMD
KDBQ 270528Z 2705/2806 07018G25KT P6SM OVC012
     FM271800 08020G30KT 4SM -SHRA OVC015
     FM272200 09018G24KT P6SM OVC025
     FM280200 09015G22KT P6SM SHRA VCTS OVC015CB=

USA.gov is the U.S. government's official web portal to all federal, state and local government web resources and services.